createdAt,value
2023-05-14T00:00:48.510Z,13.70
2023-05-14T00:03:31.141Z,13.69
2023-05-14T00:06:00.409Z,13.60
2023-05-14T00:08:30.604Z,13.71
2023-05-14T00:11:00.162Z,13.69
2023-05-14T00:13:29.091Z,13.63
2023-05-14T00:15:58.231Z,13.59
2023-05-14T00:18:27.164Z,13.57
2023-05-14T00:20:56.318Z,13.53
2023-05-14T00:23:25.310Z,13.55
2023-05-14T00:25:55.823Z,13.53
2023-05-14T00:28:24.621Z,13.51
2023-05-14T00:30:53.774Z,13.51
2023-05-14T00:33:22.825Z,13.48
2023-05-14T00:35:51.870Z,13.50
2023-05-14T00:38:20.675Z,13.47
2023-05-14T00:40:52.119Z,13.48
2023-05-14T00:43:22.693Z,13.46
2023-05-14T00:45:52.933Z,13.42
2023-05-14T00:48:22.599Z,13.47
2023-05-14T00:50:52.225Z,13.36
2023-05-14T00:53:21.806Z,13.40
2023-05-14T00:55:51.469Z,13.35
2023-05-14T00:58:20.665Z,13.37
2023-05-14T01:00:52.081Z,13.35
2023-05-14T01:03:21.137Z,13.31
2023-05-14T01:05:57.054Z,13.30
2023-05-14T01:08:29.189Z,13.28
2023-05-14T01:11:01.372Z,13.30
2023-05-14T01:13:34.979Z,13.24
2023-05-14T01:16:05.765Z,13.10
2023-05-14T01:18:35.656Z,13.09
2023-05-14T01:21:04.838Z,12.96
2023-05-14T01:23:35.031Z,12.79
2023-05-14T01:26:04.315Z,12.73
2023-05-14T01:28:36.156Z,12.73
2023-05-14T01:31:08.326Z,12.77
2023-05-14T01:33:38.144Z,12.78
2023-05-14T01:36:07.720Z,12.84
2023-05-14T01:38:38.492Z,12.82
2023-05-14T01:41:07.845Z,12.89
2023-05-14T01:43:37.391Z,12.95
2023-05-14T01:46:06.762Z,12.95
2023-05-14T01:48:35.583Z,13.00
2023-05-14T01:51:04.849Z,12.92
2023-05-14T01:53:34.993Z,12.95
2023-05-14T01:56:05.811Z,12.99
2023-05-14T01:58:34.729Z,13.01
2023-05-14T02:01:03.882Z,12.62
2023-05-14T02:03:32.815Z,12.77
2023-05-14T02:06:01.960Z,12.85
2023-05-14T02:08:30.845Z,12.90
2023-05-14T02:11:00.501Z,12.94
2023-05-14T02:13:30.766Z,12.91
2023-05-14T02:15:59.955Z,12.86
2023-05-14T02:18:28.784Z,12.88
2023-05-14T02:20:58.005Z,12.91
2023-05-14T02:23:37.970Z,12.92
2023-05-14T02:26:11.048Z,12.92
2023-05-14T02:28:41.210Z,12.89
2023-05-14T02:31:10.347Z,12.87
2023-05-14T02:33:39.193Z,12.78
2023-05-14T02:36:08.618Z,12.78
2023-05-14T02:38:37.496Z,12.77
2023-05-14T02:41:06.909Z,12.76
2023-05-14T02:43:35.682Z,12.68
2023-05-14T02:46:06.443Z,12.62
2023-05-14T02:48:35.727Z,12.67
2023-05-14T02:51:04.978Z,12.61
2023-05-14T02:53:33.840Z,12.56
2023-05-14T02:56:02.918Z,12.50
2023-05-14T02:58:31.741Z,12.44
2023-05-14T03:01:00.929Z,12.40
2023-05-14T03:03:32.247Z,12.28
2023-05-14T03:06:01.950Z,12.16
2023-05-14T03:08:30.733Z,12.15
2023-05-14T03:10:59.934Z,12.15
2023-05-14T03:13:28.728Z,12.15
2023-05-14T03:15:57.804Z,12.16
2023-05-14T03:18:28.441Z,12.21
2023-05-14T03:20:59.040Z,12.22
2023-05-14T03:23:27.983Z,12.23
2023-05-14T03:25:57.089Z,12.21
2023-05-14T03:28:27.106Z,12.09
2023-05-14T03:30:56.268Z,12.08
2023-05-14T03:33:25.249Z,12.03
2023-05-14T03:35:54.385Z,11.97
2023-05-14T03:38:24.734Z,11.90
2023-05-14T03:40:53.927Z,11.75
2023-05-14T03:43:22.711Z,11.63
2023-05-14T03:45:53.260Z,11.64
2023-05-14T03:48:22.251Z,11.70
2023-05-14T03:50:51.404Z,11.77
2023-05-14T03:53:20.283Z,11.83
2023-05-14T03:55:50.813Z,11.92
2023-05-14T03:58:19.625Z,12.01
2023-05-14T04:00:48.713Z,12.10
2023-05-14T04:03:17.623Z,12.11
2023-05-14T04:05:46.812Z,12.17
2023-05-14T04:08:15.630Z,12.21
2023-05-14T04:10:44.744Z,12.24
2023-05-14T04:13:15.042Z,12.24
2023-05-14T04:15:44.326Z,12.31
2023-05-14T04:18:13.148Z,12.32
2023-05-14T04:20:42.280Z,12.33
2023-05-14T04:23:11.071Z,12.34
2023-05-14T04:25:40.303Z,12.33
2023-05-14T04:28:09.133Z,12.38
2023-05-14T04:30:40.599Z,12.43
2023-05-14T04:33:09.487Z,12.49
2023-05-14T04:35:39.988Z,12.56
2023-05-14T04:38:10.160Z,12.63
2023-05-14T04:40:39.261Z,12.71
2023-05-14T04:43:08.037Z,12.79
2023-05-14T04:45:37.399Z,12.85
2023-05-14T04:48:08.892Z,12.90
2023-05-14T04:50:38.210Z,12.96
2023-05-14T04:53:06.982Z,13.04
2023-05-14T04:55:36.080Z,13.11
2023-05-14T04:58:05.360Z,13.17
2023-05-14T05:00:34.507Z,13.24
2023-05-14T05:03:03.505Z,13.29
2023-05-14T05:05:35.202Z,13.38
2023-05-14T05:08:04.121Z,13.43
2023-05-14T05:10:33.200Z,13.49
2023-05-14T05:13:02.101Z,13.56
2023-05-14T05:15:31.177Z,13.60
2023-05-14T05:18:00.052Z,13.67
2023-05-14T05:20:29.322Z,13.72
2023-05-14T05:22:59.585Z,13.76
2023-05-14T05:25:28.754Z,13.80
2023-05-14T05:27:57.717Z,13.85
2023-05-14T05:30:26.918Z,13.90
2023-05-14T05:32:57.204Z,13.94
2023-05-14T05:35:26.347Z,13.98
2023-05-14T05:37:55.106Z,14.02
2023-05-14T05:40:25.777Z,14.07
2023-05-14T05:42:54.685Z,14.11
2023-05-14T05:45:23.766Z,14.15
2023-05-14T05:47:52.859Z,14.23
2023-05-14T05:50:22.782Z,14.28
2023-05-14T05:52:52.118Z,14.33
2023-05-14T05:55:21.201Z,14.38
2023-05-14T05:57:51.399Z,14.44
2023-05-14T06:00:21.146Z,14.49
2023-05-14T06:02:50.161Z,14.52
2023-05-14T06:05:19.590Z,14.61
2023-05-14T06:07:48.714Z,14.67
2023-05-14T06:10:17.859Z,14.71
2023-05-14T06:12:46.732Z,14.75
2023-05-14T06:15:17.239Z,14.82
2023-05-14T06:17:46.111Z,14.86
2023-05-14T06:20:15.301Z,14.90
2023-05-14T06:22:44.173Z,14.97
2023-05-14T06:25:13.229Z,15.03
2023-05-14T06:27:42.007Z,15.10
2023-05-14T06:30:11.819Z,15.16
2023-05-14T06:32:42.061Z,15.19
2023-05-14T06:35:11.290Z,15.25
2023-05-14T06:37:40.107Z,15.31
2023-05-14T06:40:10.832Z,15.37
2023-05-14T06:42:39.645Z,15.42
2023-05-14T06:45:09.216Z,15.49
2023-05-14T06:47:38.088Z,15.57
2023-05-14T06:50:10.733Z,15.64
2023-05-14T06:52:39.948Z,15.69
2023-05-14T06:55:09.387Z,15.78
2023-05-14T06:57:40.472Z,15.85
2023-05-14T07:00:10.416Z,15.90
2023-05-14T07:02:39.217Z,16.01
2023-05-14T07:05:10.127Z,16.08
2023-05-14T07:07:39.005Z,16.17
2023-05-14T07:10:08.616Z,16.27
2023-05-14T07:12:37.509Z,16.33
2023-05-14T07:15:07.246Z,16.40
2023-05-14T07:17:36.157Z,16.49
2023-05-14T07:20:05.829Z,16.58
2023-05-14T07:22:35.962Z,16.69
2023-05-14T07:25:05.270Z,16.80
2023-05-14T07:27:34.102Z,16.88
2023-05-14T07:30:03.201Z,16.94
2023-05-14T07:32:32.006Z,16.98
2023-05-14T07:35:01.469Z,17.06
2023-05-14T07:37:30.214Z,17.15
2023-05-14T07:40:00.675Z,17.25
2023-05-14T07:42:36.659Z,17.30
2023-05-14T07:45:06.875Z,17.42
2023-05-14T07:47:35.812Z,17.53
2023-05-14T07:50:05.087Z,17.62
2023-05-14T07:52:34.062Z,17.69
2023-05-14T07:55:05.328Z,17.78
2023-05-14T07:57:34.140Z,17.89
2023-05-14T08:00:03.994Z,17.98
2023-05-14T08:02:41.204Z,18.04
2023-05-14T08:05:10.772Z,18.19
2023-05-14T08:07:39.573Z,18.29
2023-05-14T08:10:10.794Z,18.44
2023-05-14T08:12:39.712Z,18.56
2023-05-14T08:15:09.524Z,18.74
2023-05-14T08:17:38.447Z,18.82
2023-05-14T08:20:08.290Z,18.85
2023-05-14T08:22:37.174Z,18.92
2023-05-14T08:25:06.751Z,18.96
2023-05-14T08:27:36.912Z,18.96
2023-05-14T08:30:06.845Z,19.04
2023-05-14T08:32:35.616Z,19.12
2023-05-14T08:35:04.807Z,19.18
2023-05-14T08:37:33.822Z,19.22
2023-05-14T08:40:03.048Z,19.30
2023-05-14T08:42:31.973Z,19.33
2023-05-14T08:45:03.621Z,19.43
2023-05-14T08:47:32.742Z,19.47
2023-05-14T08:50:02.920Z,19.55
2023-05-14T08:52:32.389Z,19.64
2023-05-14T08:55:02.256Z,19.76
2023-05-14T08:57:33.303Z,19.88
2023-05-14T09:00:08.407Z,19.96
2023-05-14T09:02:37.931Z,19.98
2023-05-14T09:05:09.347Z,20.11
2023-05-14T09:07:38.186Z,20.25
2023-05-14T09:10:09.055Z,20.30
2023-05-14T09:12:37.916Z,20.35
2023-05-14T09:15:09.080Z,20.45
2023-05-14T09:17:38.043Z,20.50
2023-05-14T09:20:08.200Z,20.54
2023-05-14T09:22:37.119Z,20.58
2023-05-14T09:25:07.120Z,20.70
2023-05-14T09:27:36.362Z,20.75
2023-05-14T09:30:06.006Z,20.82
2023-05-14T09:32:40.247Z,20.90
2023-05-14T09:35:13.414Z,21.06
2023-05-14T09:37:42.890Z,21.11
2023-05-14T09:40:12.666Z,21.19
2023-05-14T09:42:41.757Z,21.25
2023-05-14T09:45:11.666Z,21.32
2023-05-14T09:47:42.464Z,21.53
2023-05-14T09:50:11.897Z,21.76
2023-05-14T09:52:41.199Z,21.91
2023-05-14T09:55:10.791Z,21.96
2023-05-14T09:57:39.978Z,21.99
2023-05-14T10:00:10.392Z,22.17
2023-05-14T10:02:41.414Z,22.20
2023-05-14T10:05:13.434Z,22.21
2023-05-14T10:07:44.141Z,22.27
2023-05-14T10:10:16.362Z,22.25
2023-05-14T10:12:47.553Z,22.28
2023-05-14T10:15:18.932Z,22.48
2023-05-14T10:17:50.561Z,22.54
2023-05-14T10:20:22.076Z,22.65
2023-05-14T10:22:52.061Z,22.71
2023-05-14T10:25:21.442Z,22.66
2023-05-14T10:27:50.254Z,22.66
2023-05-14T10:30:22.950Z,22.64
2023-05-14T10:33:06.570Z,22.70
2023-05-14T10:35:50.982Z,22.73
2023-05-14T10:38:24.558Z,22.83
2023-05-14T10:40:55.894Z,22.85
2023-05-14T10:43:26.240Z,22.91
2023-05-14T10:45:55.630Z,23.03
2023-05-14T10:48:24.803Z,23.22
2023-05-14T10:50:54.259Z,23.34
2023-05-14T10:53:33.059Z,23.33
2023-05-14T10:56:06.053Z,23.41
2023-05-14T10:58:36.991Z,23.31
2023-05-14T11:01:07.283Z,23.46
2023-05-14T11:03:40.169Z,23.40
2023-05-14T11:06:09.651Z,23.31
2023-05-14T11:08:39.800Z,23.20
2023-05-14T11:11:10.098Z,23.14
2023-05-14T11:13:39.127Z,23.05
2023-05-14T11:16:21.547Z,22.88
2023-05-14T11:18:54.515Z,22.84
2023-05-14T11:21:23.794Z,22.80
2023-05-14T11:23:55.696Z,22.89
2023-05-14T11:26:25.011Z,22.94
2023-05-14T11:28:53.914Z,23.02
2023-05-14T11:31:24.237Z,23.08
2023-05-14T11:33:53.352Z,23.11
2023-05-14T11:36:22.936Z,23.16
2023-05-14T11:38:52.523Z,23.17
2023-05-14T11:41:23.531Z,23.15
2023-05-14T11:43:52.478Z,23.13
2023-05-14T11:46:22.507Z,23.19
2023-05-14T11:48:51.408Z,23.17
2023-05-14T11:51:20.452Z,23.14
2023-05-14T11:53:49.314Z,23.06
2023-05-14T11:56:18.458Z,23.15
2023-05-14T11:58:56.745Z,23.14
2023-05-14T12:01:26.024Z,23.05
2023-05-14T12:03:54.969Z,22.96
2023-05-14T12:06:31.751Z,22.83
2023-05-14T12:09:01.589Z,22.69
2023-05-14T12:11:32.018Z,22.55
2023-05-14T12:14:02.499Z,22.39
2023-05-14T12:16:32.921Z,22.40
2023-05-14T12:19:02.941Z,22.41
2023-05-14T12:21:32.236Z,22.37
2023-05-14T12:24:01.067Z,22.45
2023-05-14T12:26:33.714Z,22.42
2023-05-14T12:29:04.846Z,22.48
2023-05-14T12:31:34.748Z,22.52
2023-05-14T12:34:04.021Z,22.60
2023-05-14T12:36:33.409Z,22.67
2023-05-14T12:39:03.753Z,22.68
2023-05-14T12:41:33.362Z,22.60
2023-05-14T12:44:02.163Z,22.54
2023-05-14T12:46:34.268Z,22.43
2023-05-14T12:49:03.161Z,22.33
2023-05-14T12:51:32.320Z,22.16
2023-05-14T12:54:01.173Z,22.08
2023-05-14T12:56:31.674Z,22.07
2023-05-14T12:59:00.671Z,22.03
2023-05-14T13:01:29.774Z,21.99
2023-05-14T13:04:00.104Z,22.03
2023-05-14T13:06:29.425Z,22.12
2023-05-14T13:09:00.262Z,22.17
2023-05-14T13:11:31.846Z,22.17
2023-05-14T13:14:01.045Z,22.14
2023-05-14T13:16:30.337Z,22.09
2023-05-14T13:19:00.599Z,21.94
2023-05-14T13:21:29.833Z,21.93
2023-05-14T13:23:58.619Z,21.91
2023-05-14T13:26:28.391Z,21.89
2023-05-14T13:28:57.204Z,21.84
2023-05-14T13:31:26.279Z,21.82
2023-05-14T13:33:55.213Z,21.82
2023-05-14T13:36:25.703Z,21.77
2023-05-14T13:38:54.625Z,21.78
2023-05-14T13:41:23.734Z,21.80
2023-05-14T13:43:52.526Z,21.77
2023-05-14T13:46:21.700Z,21.82
2023-05-14T13:48:50.615Z,21.86
2023-05-14T13:51:19.730Z,21.92
2023-05-14T13:53:49.965Z,21.91
2023-05-14T13:56:19.150Z,21.83
2023-05-14T13:58:48.595Z,21.75
2023-05-14T14:01:17.846Z,21.71
2023-05-14T14:03:46.683Z,21.52
2023-05-14T14:06:15.812Z,21.49
2023-05-14T14:08:44.777Z,21.40
2023-05-14T14:11:15.307Z,21.34
2023-05-14T14:13:45.863Z,21.38
2023-05-14T14:16:15.982Z,21.27
2023-05-14T14:18:44.784Z,21.30
2023-05-14T14:21:14.392Z,21.26
2023-05-14T14:23:43.216Z,21.21
2023-05-14T14:26:12.407Z,21.22
2023-05-14T14:28:42.659Z,21.19
2023-05-14T14:31:11.814Z,21.17
2023-05-14T14:33:40.787Z,21.15
2023-05-14T14:36:10.288Z,21.13
2023-05-14T14:38:39.568Z,21.11
2023-05-14T14:41:10.073Z,20.99
2023-05-14T14:43:40.335Z,20.98
2023-05-14T14:46:11.219Z,20.97
2023-05-14T14:48:41.351Z,20.96
2023-05-14T14:51:10.938Z,20.96
2023-05-14T14:53:40.485Z,20.91
2023-05-14T14:56:09.689Z,20.82
2023-05-14T14:58:38.496Z,20.88
2023-05-14T15:01:07.757Z,20.84
2023-05-14T15:03:38.088Z,20.85
2023-05-14T15:06:07.515Z,20.84
2023-05-14T15:08:36.474Z,20.83
2023-05-14T15:11:06.392Z,20.80
2023-05-14T15:13:35.304Z,20.77
2023-05-14T15:16:04.393Z,20.76
2023-05-14T15:18:33.310Z,20.71
2023-05-14T15:21:03.763Z,20.75
2023-05-14T15:23:32.577Z,20.70
2023-05-14T15:26:01.692Z,20.66
2023-05-14T15:28:30.482Z,20.62
2023-05-14T15:31:00.137Z,20.63
2023-05-14T15:33:29.048Z,20.57
2023-05-14T15:35:58.132Z,20.53
2023-05-14T15:38:28.319Z,20.46
2023-05-14T15:40:57.487Z,20.45
2023-05-14T15:43:26.289Z,20.39
2023-05-14T15:45:56.051Z,20.41
2023-05-14T15:48:24.943Z,20.31
2023-05-14T15:50:54.223Z,20.31
2023-05-14T15:53:23.028Z,20.27
2023-05-14T15:55:53.484Z,20.31
2023-05-14T15:58:22.292Z,20.23
2023-05-14T16:00:51.351Z,20.26
2023-05-14T16:03:20.227Z,20.25
2023-05-14T16:05:49.381Z,20.25
2023-05-14T16:08:18.323Z,20.17
2023-05-14T16:10:47.725Z,20.10
2023-05-14T16:13:17.921Z,20.12
2023-05-14T16:15:47.096Z,20.17
2023-05-14T16:18:16.419Z,20.22
2023-05-14T16:20:45.617Z,20.20
2023-05-14T16:23:14.393Z,20.25
2023-05-14T16:25:43.630Z,20.39
2023-05-14T16:28:12.480Z,20.54
2023-05-14T16:30:43.032Z,20.58
2023-05-14T16:33:11.988Z,20.56
2023-05-14T16:35:41.206Z,20.48
2023-05-14T16:38:10.126Z,20.39
2023-05-14T16:40:39.171Z,20.32
2023-05-14T16:43:08.030Z,20.23
2023-05-14T16:45:37.548Z,20.18
2023-05-14T16:48:08.181Z,20.16
2023-05-14T16:50:37.383Z,20.07
2023-05-14T16:53:06.143Z,20.03
2023-05-14T16:55:35.332Z,20.05
2023-05-14T16:58:04.128Z,19.96
2023-05-14T17:00:33.232Z,19.93
2023-05-14T17:03:02.462Z,19.88
2023-05-14T17:05:33.073Z,19.81
2023-05-14T17:08:01.996Z,19.79
2023-05-14T17:10:33.204Z,19.76
2023-05-14T17:13:02.377Z,19.69
2023-05-14T17:15:49.709Z,19.63
2023-05-14T17:18:18.994Z,19.52
2023-05-14T17:20:49.559Z,19.52
2023-05-14T17:23:19.231Z,19.42
2023-05-14T17:25:48.280Z,19.50
2023-05-14T17:28:17.196Z,19.45
2023-05-14T17:30:46.238Z,19.49
2023-05-14T17:33:15.054Z,19.38
2023-05-14T17:35:45.859Z,19.41
2023-05-14T17:38:17.122Z,19.33
2023-05-14T17:40:46.264Z,19.33
2023-05-14T17:43:15.165Z,19.29
2023-05-14T17:45:53.968Z,19.19
2023-05-14T17:48:24.092Z,19.17
2023-05-14T17:50:54.072Z,19.02
2023-05-14T17:53:24.367Z,19.05
2023-05-14T17:55:53.527Z,19.01
2023-05-14T17:58:22.317Z,18.96
2023-05-14T18:00:51.530Z,18.92
2023-05-14T18:03:21.386Z,18.83
2023-05-14T18:05:51.233Z,18.82
2023-05-14T18:08:20.083Z,18.74
2023-05-14T18:10:50.553Z,18.72
2023-05-14T18:13:19.370Z,18.66
2023-05-14T18:15:48.503Z,18.51
2023-05-14T18:18:18.766Z,18.49
2023-05-14T18:20:48.053Z,18.45
2023-05-14T18:23:16.870Z,18.35
2023-05-14T18:25:46.073Z,18.31
2023-05-14T18:28:16.570Z,18.21
2023-05-14T18:30:45.793Z,18.26
2023-05-14T18:33:14.748Z,18.22
2023-05-14T18:35:44.707Z,17.99
2023-05-14T18:38:13.918Z,17.89
2023-05-14T18:40:43.058Z,17.93
2023-05-14T18:43:13.492Z,17.83
2023-05-14T18:45:46.109Z,17.83
2023-05-14T18:48:15.422Z,17.71
2023-05-14T18:50:44.535Z,17.58
2023-05-14T18:53:13.341Z,17.54
2023-05-14T18:55:42.478Z,17.60
2023-05-14T18:58:12.089Z,17.49
2023-05-14T19:00:41.401Z,17.47
2023-05-14T19:03:11.709Z,17.40
2023-05-14T19:05:40.986Z,17.38
2023-05-14T19:08:09.884Z,17.37
2023-05-14T19:10:39.085Z,17.30
2023-05-14T19:13:07.947Z,17.17
2023-05-14T19:15:37.125Z,17.05
2023-05-14T19:18:06.140Z,17.09
2023-05-14T19:20:36.760Z,17.12
2023-05-14T19:23:05.652Z,17.13
2023-05-14T19:25:34.895Z,17.01
2023-05-14T19:28:04.841Z,16.97
2023-05-14T19:30:33.930Z,17.06
2023-05-14T19:33:03.456Z,17.09
2023-05-14T19:35:32.604Z,17.08
2023-05-14T19:38:02.755Z,16.98
2023-05-14T19:40:31.906Z,16.91
2023-05-14T19:43:00.664Z,16.82
2023-05-14T19:45:29.821Z,16.82
2023-05-14T19:47:59.035Z,16.79
2023-05-14T19:50:28.156Z,16.74
2023-05-14T19:52:57.647Z,16.69
2023-05-14T19:55:28.249Z,16.62
2023-05-14T19:57:57.765Z,16.60
2023-05-14T20:00:27.305Z,16.51
2023-05-14T20:02:59.580Z,16.53
2023-05-14T20:05:28.964Z,16.29
2023-05-14T20:07:57.789Z,16.37
2023-05-14T20:10:28.593Z,16.36
2023-05-14T20:12:57.483Z,16.31
2023-05-14T20:15:27.510Z,16.13
2023-05-14T20:17:56.475Z,16.20
2023-05-14T20:20:25.767Z,16.20
2023-05-14T20:22:54.802Z,16.13
2023-05-14T20:25:25.945Z,16.06
2023-05-14T20:28:00.263Z,15.87
2023-05-14T20:30:29.587Z,15.90
2023-05-14T20:32:58.510Z,15.95
2023-05-14T20:35:27.792Z,15.94
2023-05-14T20:37:56.730Z,15.79
2023-05-14T20:40:26.051Z,15.72
2023-05-14T20:42:55.057Z,15.80
2023-05-14T20:45:26.090Z,15.76
2023-05-14T20:47:55.399Z,15.59
2023-05-14T20:50:27.148Z,15.66
2023-05-14T20:52:56.340Z,15.73
2023-05-14T20:55:26.066Z,15.61
2023-05-14T20:57:55.401Z,15.62
2023-05-14T21:00:26.330Z,15.61
2023-05-14T21:02:55.620Z,15.67
2023-05-14T21:05:25.056Z,15.65
2023-05-14T21:07:54.317Z,15.69
2023-05-14T21:10:24.165Z,15.66
2023-05-14T21:12:53.620Z,15.53
2023-05-14T21:15:23.410Z,15.51
2023-05-14T21:17:54.440Z,15.53
2023-05-14T21:20:24.149Z,15.50
2023-05-14T21:22:53.429Z,15.40
2023-05-14T21:25:23.147Z,15.39
2023-05-14T21:27:52.428Z,15.41
2023-05-14T21:30:22.019Z,15.35
2023-05-14T21:32:51.084Z,15.31
2023-05-14T21:35:22.299Z,15.26
2023-05-14T21:37:51.465Z,15.26
2023-05-14T21:40:20.719Z,15.22
2023-05-14T21:42:49.857Z,15.19
2023-05-14T21:45:20.119Z,15.15
2023-05-14T21:47:49.900Z,15.03
2023-05-14T21:50:19.378Z,14.92
2023-05-14T21:52:49.900Z,14.92
2023-05-14T21:55:19.240Z,14.96
2023-05-14T21:57:48.241Z,14.98
2023-05-14T22:00:23.372Z,14.88
2023-05-14T22:02:53.211Z,14.93
2023-05-14T22:05:23.327Z,14.91
2023-05-14T22:07:54.125Z,14.83
2023-05-14T22:10:23.463Z,14.80
2023-05-14T22:12:52.416Z,14.78
2023-05-14T22:15:21.960Z,14.83
2023-05-14T22:17:50.762Z,14.83
2023-05-14T22:20:19.955Z,14.77
2023-05-14T22:22:48.793Z,14.71
2023-05-14T22:25:19.363Z,14.64
2023-05-14T22:27:48.561Z,14.56
2023-05-14T22:30:18.195Z,14.47
2023-05-14T22:32:47.582Z,14.42
2023-05-14T22:35:17.294Z,14.35
2023-05-14T22:37:46.192Z,14.33
2023-05-14T22:40:15.390Z,14.31
2023-05-14T22:42:45.616Z,14.32
2023-05-14T22:45:14.811Z,14.33
2023-05-14T22:47:43.616Z,14.31
2023-05-14T22:50:12.918Z,14.26
2023-05-14T22:52:41.974Z,14.21
2023-05-14T22:55:11.550Z,14.22
2023-05-14T22:57:40.505Z,14.23
2023-05-14T23:00:11.722Z,14.21
2023-05-14T23:02:40.774Z,14.30
2023-05-14T23:05:10.423Z,14.34
2023-05-14T23:07:39.258Z,14.36
2023-05-14T23:10:08.752Z,14.35
2023-05-14T23:12:37.630Z,14.31
2023-05-14T23:15:07.256Z,14.32
2023-05-14T23:17:37.570Z,14.38
2023-05-14T23:20:07.502Z,14.40
2023-05-14T23:22:36.325Z,14.46
2023-05-14T23:25:05.769Z,14.48
2023-05-14T23:27:34.770Z,14.49
2023-05-14T23:30:04.211Z,14.48
2023-05-14T23:32:33.169Z,14.44
2023-05-14T23:35:03.658Z,14.47
2023-05-14T23:37:33.701Z,14.46
2023-05-14T23:40:02.882Z,14.45
2023-05-14T23:42:32.172Z,14.47
2023-05-14T23:45:01.377Z,14.48
2023-05-14T23:47:30.231Z,14.43
2023-05-14T23:49:59.308Z,14.34
2023-05-14T23:52:29.608Z,14.31
2023-05-14T23:54:58.696Z,14.25
2023-05-14T23:57:27.557Z,14.20
2023-05-14T23:59:56.807Z,14.15
